Airfield :
LOGIN :

Register | Disclaimer

   EN    FR    IT 

 










Legend :    VFR   Marginal VFR   IFR   Intensive IFR   Very Intensive IFR
Visi :
Ceiling :
>= 8 km
>= 3000ft
5 to 8 km
1000 to 3000 ft
1500m to 5 km
500 to 1000 ft
800 to 1500m
200 to 500 ft
< 800m
< 200 ft
Symbols :   Thunderstorms  Fog  Heavy snow  Heavy precipitations  Wind > 20 kt
SIGMETs :     Misc.  Thunderstorms  Icing  Turbulence  Mountain Waves  Volcanic Ashes







- Airport Elevation : 297 ft
- IATA code : ODB


LEBA - Córdoba

CURRENT METAR :
  • 121330Z VRB02KT CAVOK 13/01 Q1019

EXPIRED METARs :
  • 121300Z 09005KT 050V160 CAVOK 12/02 Q1018
  • 121230Z 09008KT 060V120 CAVOK 12/01 Q1018
  • 121200Z 10006KT 060V140 CAVOK 12/01 Q1019
  • 121130Z 14005KT 060V190 CAVOK 12/02 Q1019
  • 121100Z 06002KT CAVOK 11/04 Q1019

TAF TAF LEBA
Valid from the 12 at 12:00 until the 12 at 21:00 UTC


121100Z 1212/1221 07005KT CAVOK
No reported NOTAMs for that airfield.
2 SIGMETs reported for the Madrid FIR (LECM) :
 
Severe turbulence
LECM SIGMET 5 VALID 121350/121700 LEVA
LECM MADRID FIR SEV TURB FCST E OF LINE N4411 W00601 - N3750 W00603 FL300/420 MOV E 25KT NC=
Severe turbulence
LECM SIGMET 4 VALID 121300/121500 LEVA
LECM MADRID FIR/UIR SEV TURB FCST E OF LINE N36 W00540 - N4010 W001 FL200/300 MOV E 20KT NC=



MET'MAP, your aeronautical weather chart ! - Copyright ORBIFLY December 2007 - Disclaimer

ORBIFLY MET'MAP TEAM :

Programming & Development : Alexandra Zaïnal
Concept & Development : Baudouin d'Aumeries
Co-Development & Prog : Marc-Olivier Méhu
Technical & hardware support : Manuel Goepfert

Contact : metmap@orbifly.com




SOURCES & CREDITS :

   NOAA